createdAt,value
2019-03-19T00:00:00.359Z,94.70
2019-03-19T00:02:34.167Z,94.60
2019-03-19T00:05:07.344Z,94.40
2019-03-19T00:07:40.138Z,94.30
2019-03-19T00:10:12.633Z,94.30
2019-03-19T00:12:45.765Z,94.00
2019-03-19T00:15:18.327Z,93.90
2019-03-19T00:17:51.118Z,93.80
2019-03-19T00:20:23.436Z,93.90
2019-03-19T00:22:55.913Z,93.90
2019-03-19T00:25:30.506Z,93.70
2019-03-19T00:28:04.771Z,93.90
2019-03-19T00:30:37.654Z,93.20
2019-03-19T00:33:10.421Z,93.20
2019-03-19T00:35:43.015Z,93.20
2019-03-19T00:38:15.764Z,93.10
2019-03-19T00:40:48.425Z,93.10
2019-03-19T00:43:21.070Z,93.00
2019-03-19T00:45:53.474Z,92.80
2019-03-19T00:48:26.145Z,92.60
2019-03-19T00:50:59.739Z,92.30
2019-03-19T00:53:32.114Z,92.30
2019-03-19T00:56:04.619Z,91.90
2019-03-19T00:58:37.370Z,91.70
2019-03-19T01:01:09.884Z,91.60
2019-03-19T01:03:42.500Z,91.40
2019-03-19T01:06:14.929Z,91.30
2019-03-19T01:08:47.545Z,91.40
2019-03-19T01:11:20.185Z,91.50
2019-03-19T01:13:52.775Z,91.50
2019-03-19T01:16:25.127Z,91.10
2019-03-19T01:18:57.844Z,90.80
2019-03-19T01:21:30.594Z,90.50
2019-03-19T01:24:02.979Z,90.40
2019-03-19T01:26:35.662Z,89.80
2019-03-19T01:29:08.201Z,90.10
2019-03-19T01:31:40.960Z,89.90
2019-03-19T01:34:13.292Z,90.00
2019-03-19T01:36:45.702Z,88.90
2019-03-19T01:39:18.089Z,88.00
2019-03-19T01:41:50.468Z,87.20
2019-03-19T01:44:22.933Z,87.30
2019-03-19T01:46:55.548Z,85.90
2019-03-19T01:49:27.942Z,86.20
2019-03-19T01:52:00.546Z,85.80
2019-03-19T01:54:33.162Z,84.90
2019-03-19T01:57:05.987Z,85.10
2019-03-19T01:59:39.502Z,84.30
2019-03-19T02:02:12.305Z,84.40
2019-03-19T02:04:44.755Z,83.50
2019-03-19T02:07:17.511Z,83.10
2019-03-19T02:09:49.788Z,83.10
2019-03-19T02:12:22.436Z,82.60
2019-03-19T02:14:54.732Z,82.30
2019-03-19T02:17:27.121Z,81.50
2019-03-19T02:19:59.647Z,81.20
2019-03-19T02:22:32.430Z,80.70
2019-03-19T02:25:05.027Z,80.40
2019-03-19T02:27:37.762Z,80.10
2019-03-19T02:30:12.885Z,79.60
2019-03-19T02:32:45.673Z,78.90
2019-03-19T02:35:18.114Z,78.50
2019-03-19T02:37:50.631Z,76.40
2019-03-19T02:40:23.115Z,75.90
2019-03-19T02:42:55.881Z,75.30
2019-03-19T02:45:28.880Z,74.50
2019-03-19T02:48:01.620Z,74.60
2019-03-19T02:50:34.095Z,74.60
2019-03-19T02:53:06.608Z,74.60
2019-03-19T02:55:39.590Z,74.50
2019-03-19T02:58:12.211Z,73.50
2019-03-19T03:00:44.780Z,72.00
2019-03-19T03:03:17.480Z,71.50
2019-03-19T03:05:49.645Z,72.20
2019-03-19T03:08:22.234Z,70.10
2019-03-19T03:10:54.456Z,71.50
2019-03-19T03:13:27.180Z,70.20
2019-03-19T03:15:59.489Z,68.80
2019-03-19T03:18:32.079Z,68.50
2019-03-19T03:21:04.545Z,68.40
2019-03-19T03:23:37.037Z,69.00
2019-03-19T03:26:10.099Z,69.10
2019-03-19T03:28:42.405Z,68.80
2019-03-19T03:31:15.513Z,68.50
2019-03-19T03:33:47.668Z,68.20
2019-03-19T03:36:20.315Z,67.70
2019-03-19T03:38:53.139Z,68.50
2019-03-19T03:41:25.792Z,68.90
2019-03-19T03:43:58.192Z,67.20
2019-03-19T03:46:30.783Z,67.10
2019-03-19T03:49:03.343Z,67.50
2019-03-19T03:51:36.155Z,67.70
2019-03-19T03:54:08.604Z,67.10
2019-03-19T03:56:41.183Z,65.90
2019-03-19T03:59:13.568Z,65.70
2019-03-19T04:01:46.317Z,65.60
2019-03-19T04:04:18.926Z,67.40
2019-03-19T04:06:52.271Z,63.60
2019-03-19T04:09:24.749Z,64.20
2019-03-19T04:11:57.277Z,63.40
2019-03-19T04:14:31.892Z,62.40
2019-03-19T04:17:04.397Z,64.30
2019-03-19T04:19:36.845Z,62.70
2019-03-19T04:22:09.669Z,64.00
2019-03-19T04:24:41.956Z,64.00
2019-03-19T04:27:16.366Z,61.80
2019-03-19T04:29:48.396Z,62.10
2019-03-19T04:32:20.761Z,62.30
2019-03-19T04:34:53.395Z,61.40
2019-03-19T04:37:25.970Z,60.20
2019-03-19T04:39:58.485Z,59.50
2019-03-19T04:42:30.780Z,60.00
2019-03-19T04:45:03.131Z,59.00
2019-03-19T04:47:35.862Z,59.50
2019-03-19T04:50:10.416Z,58.20
2019-03-19T04:52:43.831Z,57.20
2019-03-19T04:55:17.714Z,56.60
2019-03-19T04:57:50.454Z,57.30
2019-03-19T05:00:23.046Z,56.20
2019-03-19T05:02:55.429Z,56.70
2019-03-19T05:05:28.256Z,55.50
2019-03-19T05:08:00.926Z,55.40
2019-03-19T05:10:33.362Z,53.70
2019-03-19T05:13:07.147Z,54.30
2019-03-19T05:15:39.420Z,52.20
2019-03-19T05:18:12.061Z,52.90
2019-03-19T05:20:44.520Z,52.00
2019-03-19T05:23:16.928Z,52.30
2019-03-19T05:25:49.639Z,50.50
2019-03-19T05:28:22.022Z,52.50
2019-03-19T05:30:54.579Z,51.60
2019-03-19T05:33:27.183Z,51.50
2019-03-19T05:35:59.737Z,50.10
2019-03-19T05:38:32.377Z,53.80
2019-03-19T05:41:04.789Z,50.20
2019-03-19T05:43:37.165Z,49.40
2019-03-19T05:46:09.485Z,49.50
2019-03-19T05:48:42.066Z,49.70
2019-03-19T05:51:14.871Z,50.90
2019-03-19T05:53:47.258Z,49.70
2019-03-19T05:56:19.888Z,49.10
2019-03-19T05:58:52.437Z,46.90
2019-03-19T06:01:24.774Z,49.30
2019-03-19T06:03:57.620Z,49.20
2019-03-19T06:06:30.217Z,48.20
2019-03-19T06:09:03.195Z,49.80
2019-03-19T06:11:35.739Z,48.20
2019-03-19T06:14:08.411Z,47.30
2019-03-19T06:16:40.756Z,46.90
2019-03-19T06:19:13.276Z,47.50
2019-03-19T06:21:45.854Z,47.70
2019-03-19T06:24:18.683Z,47.50
2019-03-19T06:26:52.670Z,45.50
2019-03-19T06:29:25.236Z,44.30
2019-03-19T06:31:57.606Z,44.70
2019-03-19T06:34:29.992Z,43.70
2019-03-19T06:37:02.506Z,45.70
2019-03-19T06:39:35.022Z,46.40
2019-03-19T06:42:07.354Z,45.30
2019-03-19T06:44:40.748Z,45.90
2019-03-19T06:47:13.150Z,45.20
2019-03-19T06:49:45.774Z,45.70
2019-03-19T06:52:18.201Z,45.90
2019-03-19T06:54:50.744Z,43.90
2019-03-19T06:57:23.111Z,42.80
2019-03-19T06:59:55.261Z,43.50
2019-03-19T07:02:27.965Z,44.00
2019-03-19T07:05:00.820Z,45.20
2019-03-19T07:07:33.565Z,43.70
2019-03-19T07:10:08.400Z,44.10
2019-03-19T07:12:42.093Z,45.80
2019-03-19T07:15:16.782Z,44.80
2019-03-19T07:17:48.975Z,43.70
2019-03-19T07:20:23.283Z,43.70
2019-03-19T07:22:55.638Z,43.60
2019-03-19T07:25:28.923Z,44.20
2019-03-19T07:28:01.574Z,45.90
2019-03-19T07:30:34.091Z,46.00
2019-03-19T07:33:06.766Z,45.30
2019-03-19T07:35:39.310Z,43.80
2019-03-19T07:38:11.649Z,46.20
2019-03-19T07:41:03.635Z,46.20
2019-03-19T07:43:36.401Z,46.80
2019-03-19T07:46:09.104Z,46.70
2019-03-19T07:48:42.203Z,46.70
2019-03-19T07:51:15.181Z,47.50
2019-03-19T07:53:47.540Z,47.00
2019-03-19T07:56:20.318Z,47.10
2019-03-19T07:58:52.520Z,46.80
2019-03-19T08:01:24.976Z,45.30
2019-03-19T08:03:57.768Z,43.90
2019-03-19T08:06:32.646Z,44.10
2019-03-19T08:09:05.629Z,44.10
2019-03-19T08:11:38.139Z,43.10
2019-03-19T08:14:10.443Z,42.80
2019-03-19T08:16:43.757Z,42.50
2019-03-19T08:19:16.040Z,41.70
2019-03-19T08:21:48.191Z,43.00
2019-03-19T08:24:20.586Z,40.50
2019-03-19T08:26:52.892Z,41.60
2019-03-19T08:29:25.304Z,42.10
2019-03-19T08:31:58.148Z,42.80
2019-03-19T08:34:30.771Z,43.30
2019-03-19T08:37:03.478Z,41.60
2019-03-19T08:39:36.630Z,42.00
2019-03-19T08:42:09.188Z,41.90
2019-03-19T08:44:42.133Z,41.80
2019-03-19T08:47:16.336Z,41.90
2019-03-19T08:49:48.806Z,42.50
2019-03-19T08:52:21.435Z,42.90
2019-03-19T08:54:53.826Z,42.30
2019-03-19T08:57:26.252Z,42.60
2019-03-19T08:59:58.588Z,43.10
2019-03-19T09:02:31.088Z,42.50
2019-03-19T09:05:03.388Z,43.40
2019-03-19T09:07:36.209Z,42.70
2019-03-19T09:10:10.737Z,41.30
2019-03-19T09:12:43.276Z,41.20
2019-03-19T09:15:17.978Z,41.80
2019-03-19T09:17:50.473Z,43.30
2019-03-19T09:20:22.777Z,43.30
2019-03-19T09:22:55.580Z,43.30
2019-03-19T09:25:27.984Z,44.30
2019-03-19T09:28:00.999Z,43.20
2019-03-19T09:30:33.525Z,43.40
2019-03-19T09:33:06.368Z,42.60
2019-03-19T09:35:38.699Z,43.30
2019-03-19T09:38:11.517Z,43.10
2019-03-19T09:40:43.627Z,42.90
2019-03-19T09:43:16.328Z,42.80
2019-03-19T09:45:48.910Z,43.00
2019-03-19T09:48:21.348Z,43.70
2019-03-19T09:50:53.741Z,43.40
2019-03-19T09:53:26.428Z,43.10
2019-03-19T09:55:58.898Z,43.90
2019-03-19T09:58:31.827Z,43.70
2019-03-19T10:01:05.115Z,45.00
2019-03-19T10:03:37.794Z,44.50
2019-03-19T10:06:14.323Z,44.10
2019-03-19T10:08:44.337Z,44.20
2019-03-19T10:11:17.386Z,44.20
2019-03-19T10:13:50.291Z,44.40
2019-03-19T10:16:22.584Z,44.70
2019-03-19T10:18:54.946Z,44.70
2019-03-19T10:21:27.259Z,44.60
2019-03-19T10:24:00.362Z,45.90
2019-03-19T10:26:32.885Z,46.90
2019-03-19T10:29:06.010Z,47.90
2019-03-19T10:31:38.521Z,47.40
2019-03-19T10:34:11.161Z,46.60
2019-03-19T10:36:43.534Z,47.40
2019-03-19T10:39:16.335Z,47.00
2019-03-19T10:41:48.864Z,47.30
2019-03-19T10:44:21.706Z,46.60
2019-03-19T10:46:55.085Z,46.80
2019-03-19T10:49:27.612Z,47.10
2019-03-19T10:52:00.078Z,47.50
2019-03-19T10:54:33.199Z,47.40
2019-03-19T10:57:05.469Z,47.70
2019-03-19T10:59:48.527Z,48.30
2019-03-19T11:02:11.713Z,48.60
2019-03-19T11:04:44.200Z,48.10
2019-03-19T11:07:16.561Z,48.40
2019-03-19T11:09:49.424Z,48.80
2019-03-19T11:12:21.965Z,48.80
2019-03-19T11:14:55.195Z,49.30
2019-03-19T11:17:28.486Z,49.60
2019-03-19T11:20:01.338Z,49.70
2019-03-19T11:22:34.067Z,50.60
2019-03-19T11:25:08.828Z,51.00
2019-03-19T11:27:41.074Z,50.80
2019-03-19T11:30:15.999Z,51.00
2019-03-19T11:32:48.269Z,50.80
2019-03-19T11:35:21.618Z,51.20
2019-03-19T11:37:54.299Z,51.10
2019-03-19T11:40:26.702Z,51.80
2019-03-19T11:42:59.254Z,52.10
2019-03-19T11:45:32.236Z,52.50
2019-03-19T11:48:04.594Z,52.90
2019-03-19T11:50:37.308Z,52.80
2019-03-19T11:53:09.706Z,52.50
2019-03-19T11:55:42.355Z,53.80
2019-03-19T11:58:14.699Z,53.70
2019-03-19T12:00:48.532Z,54.00
2019-03-19T12:03:20.901Z,54.10
2019-03-19T12:05:53.744Z,54.70
2019-03-19T12:08:26.395Z,56.20
2019-03-19T12:10:59.110Z,55.30
2019-03-19T12:13:32.816Z,55.80
2019-03-19T12:16:07.572Z,55.70
2019-03-19T12:18:39.974Z,56.20
2019-03-19T12:21:12.318Z,56.00
2019-03-19T12:23:44.680Z,56.20
2019-03-19T12:26:17.104Z,56.40
2019-03-19T12:28:49.308Z,56.60
2019-03-19T12:31:22.356Z,56.60
2019-03-19T12:33:54.742Z,56.70
2019-03-19T12:36:28.891Z,56.90
2019-03-19T12:39:01.295Z,57.20
2019-03-19T12:41:35.276Z,57.20
2019-03-19T12:44:07.665Z,57.50
2019-03-19T12:46:40.688Z,57.70
2019-03-19T12:49:13.022Z,57.30
2019-03-19T12:51:45.377Z,57.00
2019-03-19T12:54:17.731Z,56.90
2019-03-19T12:56:50.346Z,56.90
2019-03-19T12:59:23.045Z,57.40
2019-03-19T13:01:55.832Z,58.60
2019-03-19T13:04:28.539Z,57.90
2019-03-19T13:07:01.461Z,57.00
2019-03-19T13:09:33.763Z,57.20
2019-03-19T13:12:06.484Z,57.00
2019-03-19T13:14:39.009Z,56.90
2019-03-19T13:17:11.814Z,56.90
2019-03-19T13:19:44.446Z,58.00
2019-03-19T13:22:16.868Z,59.70
2019-03-19T13:24:49.166Z,60.50
2019-03-19T13:27:21.681Z,59.50
2019-03-19T13:29:54.018Z,61.40
2019-03-19T13:32:28.237Z,61.30
2019-03-19T13:35:00.367Z,60.50
2019-03-19T13:37:32.873Z,60.80
2019-03-19T13:40:06.737Z,60.70
2019-03-19T13:42:39.231Z,61.80
2019-03-19T13:45:13.786Z,61.80
2019-03-19T13:47:46.268Z,61.10
2019-03-19T13:50:20.626Z,61.10
2019-03-19T13:52:53.306Z,62.80
2019-03-19T13:55:26.132Z,62.90
2019-03-19T13:57:58.654Z,63.50
2019-03-19T14:00:31.370Z,62.40
2019-03-19T14:03:03.994Z,64.50
2019-03-19T14:05:36.392Z,63.50
2019-03-19T14:08:09.087Z,63.00
2019-03-19T14:10:41.401Z,63.00
2019-03-19T14:13:14.130Z,62.60
2019-03-19T14:15:46.643Z,62.10
2019-03-19T14:18:19.941Z,65.00
2019-03-19T14:20:52.416Z,65.10
2019-03-19T14:23:24.787Z,65.10
2019-03-19T14:25:57.382Z,68.00
2019-03-19T14:28:29.676Z,65.30
2019-03-19T14:31:08.391Z,66.00
2019-03-19T14:33:36.018Z,66.50
2019-03-19T14:36:10.281Z,67.60
2019-03-19T14:38:47.168Z,68.40
2019-03-19T14:41:16.278Z,69.40
2019-03-19T14:43:48.618Z,70.10
2019-03-19T14:46:21.103Z,70.90
2019-03-19T14:48:53.751Z,71.60
2019-03-19T14:51:26.453Z,72.40
2019-03-19T14:53:58.979Z,72.60
2019-03-19T14:56:31.581Z,73.20
2019-03-19T14:59:04.332Z,73.20
2019-03-19T15:01:37.461Z,72.80
2019-03-19T15:04:10.198Z,73.00
2019-03-19T15:06:42.846Z,72.20
2019-03-19T15:09:15.355Z,72.20
2019-03-19T15:11:47.474Z,70.80
2019-03-19T15:14:20.247Z,70.40
2019-03-19T15:16:52.346Z,71.10
2019-03-19T15:19:24.947Z,68.80
2019-03-19T15:21:58.553Z,66.70
2019-03-19T15:24:31.179Z,67.80
2019-03-19T15:27:03.584Z,66.70
2019-03-19T15:29:36.379Z,67.40
2019-03-19T15:32:08.934Z,67.80
2019-03-19T15:34:41.459Z,67.50
2019-03-19T15:37:14.321Z,67.40
2019-03-19T15:39:47.105Z,66.70
2019-03-19T15:42:19.640Z,65.60
2019-03-19T15:44:51.945Z,67.20
2019-03-19T15:47:25.032Z,64.90
2019-03-19T15:49:57.838Z,64.80
2019-03-19T15:52:30.451Z,67.40
2019-03-19T15:55:02.898Z,68.10
2019-03-19T15:57:35.652Z,69.30
2019-03-19T16:00:10.733Z,71.10
2019-03-19T16:02:44.104Z,73.10
2019-03-19T16:05:17.155Z,73.30
2019-03-19T16:07:49.562Z,73.40
2019-03-19T16:10:22.520Z,74.30
2019-03-19T16:12:55.210Z,74.60
2019-03-19T16:15:28.249Z,74.90
2019-03-19T16:18:01.066Z,75.70
2019-03-19T16:20:33.302Z,75.70
2019-03-19T16:23:05.827Z,76.50
2019-03-19T16:25:38.060Z,76.60
2019-03-19T16:28:10.717Z,77.50
2019-03-19T16:30:43.053Z,78.00
2019-03-19T16:33:15.765Z,78.10
2019-03-19T16:35:48.422Z,78.40
2019-03-19T16:38:21.647Z,79.10
2019-03-19T16:40:53.844Z,79.30
2019-03-19T16:43:26.683Z,79.40
2019-03-19T16:45:59.799Z,79.70
2019-03-19T16:48:32.449Z,80.60
2019-03-19T16:51:04.958Z,81.40
2019-03-19T16:53:37.517Z,81.60
2019-03-19T16:56:10.242Z,81.70
2019-03-19T16:58:42.951Z,82.10
2019-03-19T17:01:15.542Z,82.50
2019-03-19T17:03:47.884Z,82.10
2019-03-19T17:06:20.276Z,82.10
2019-03-19T17:08:52.931Z,82.20
2019-03-19T17:11:25.157Z,82.60
2019-03-19T17:13:57.515Z,83.10
2019-03-19T17:16:29.813Z,84.20
2019-03-19T17:19:04.096Z,83.80
2019-03-19T17:21:35.931Z,83.50
2019-03-19T17:24:08.611Z,85.10
2019-03-19T17:26:41.367Z,83.90
2019-03-19T17:29:14.076Z,83.70
2019-03-19T17:31:46.403Z,84.70
2019-03-19T17:34:19.017Z,85.00
2019-03-19T17:36:51.343Z,85.10
2019-03-19T17:39:23.674Z,85.00
2019-03-19T17:41:56.316Z,85.40
2019-03-19T17:44:28.661Z,85.80
2019-03-19T17:47:01.402Z,85.40
2019-03-19T17:49:34.531Z,85.30
2019-03-19T17:52:07.420Z,86.00
2019-03-19T17:54:39.807Z,86.50
2019-03-19T17:57:12.494Z,85.10
2019-03-19T17:59:44.918Z,86.20
2019-03-19T18:02:23.896Z,86.30
2019-03-19T18:04:52.692Z,87.20
2019-03-19T18:07:25.710Z,87.00
2019-03-19T18:09:58.824Z,87.60
2019-03-19T18:12:31.549Z,89.00
2019-03-19T18:15:03.883Z,88.50
2019-03-19T18:17:36.467Z,89.30
2019-03-19T18:20:11.032Z,90.00
2019-03-19T18:22:43.992Z,90.00
2019-03-19T18:25:18.662Z,90.20
2019-03-19T18:27:51.052Z,90.30
2019-03-19T18:30:25.962Z,89.50
2019-03-19T18:32:58.702Z,88.80
2019-03-19T18:35:31.023Z,89.00
2019-03-19T18:38:03.784Z,89.00
2019-03-19T18:40:36.192Z,90.00
2019-03-19T18:43:09.349Z,90.20
2019-03-19T18:45:42.164Z,90.00
2019-03-19T18:48:15.977Z,89.60
2019-03-19T18:50:48.585Z,89.50
2019-03-19T18:53:21.629Z,88.90
2019-03-19T18:55:54.204Z,89.00
2019-03-19T18:58:26.604Z,88.60
2019-03-19T19:00:58.848Z,89.20
2019-03-19T19:03:31.337Z,88.80
2019-03-19T19:06:03.873Z,90.00
2019-03-19T19:08:36.482Z,90.20
2019-03-19T19:11:09.372Z,90.30
2019-03-19T19:13:42.049Z,89.90
2019-03-19T19:16:14.302Z,89.30
2019-03-19T19:18:46.969Z,89.20
2019-03-19T19:21:19.303Z,88.90
2019-03-19T19:23:52.028Z,88.20
2019-03-19T19:26:24.353Z,87.90
2019-03-19T19:28:56.877Z,87.80
2019-03-19T19:31:29.376Z,88.20
2019-03-19T19:34:01.948Z,88.80
2019-03-19T19:36:34.771Z,88.20
2019-03-19T19:39:08.767Z,88.60
2019-03-19T19:41:41.210Z,88.90
2019-03-19T19:44:13.760Z,88.80
2019-03-19T19:46:46.194Z,88.50
2019-03-19T19:49:19.548Z,88.50
2019-03-19T19:51:52.003Z,88.80
2019-03-19T19:54:24.648Z,89.40
2019-03-19T19:56:57.353Z,89.80
2019-03-19T19:59:30.198Z,89.90
2019-03-19T20:02:02.786Z,89.50
2019-03-19T20:04:35.378Z,89.40
2019-03-19T20:07:07.796Z,90.00
2019-03-19T20:09:40.422Z,90.10
2019-03-19T20:12:12.702Z,90.20
2019-03-19T20:14:45.325Z,90.50
2019-03-19T20:17:17.750Z,90.90
2019-03-19T20:19:49.990Z,90.70
2019-03-19T20:22:22.320Z,90.90
2019-03-19T20:24:54.741Z,91.10
2019-03-19T20:27:27.260Z,91.10
2019-03-19T20:29:59.778Z,91.00
2019-03-19T20:32:32.602Z,91.10
2019-03-19T20:35:06.035Z,91.10
2019-03-19T20:37:38.874Z,91.00
2019-03-19T20:40:13.616Z,91.40
2019-03-19T20:42:46.240Z,91.50
2019-03-19T20:45:21.677Z,91.50
2019-03-19T20:47:54.263Z,91.30
2019-03-19T20:50:29.493Z,91.20
2019-03-19T20:53:02.134Z,91.20
2019-03-19T20:55:34.851Z,91.70
2019-03-19T20:58:07.954Z,92.00
2019-03-19T21:00:40.489Z,92.00
2019-03-19T21:03:13.024Z,91.60
2019-03-19T21:05:46.287Z,91.50
2019-03-19T21:08:18.644Z,91.70
2019-03-19T21:10:50.940Z,92.00
2019-03-19T21:13:23.376Z,92.00
2019-03-19T21:15:56.292Z,92.40
2019-03-19T21:18:28.781Z,92.30
2019-03-19T21:21:01.529Z,92.10
2019-03-19T21:23:33.942Z,92.40
2019-03-19T21:26:06.590Z,92.60
2019-03-19T21:28:38.995Z,92.40
2019-03-19T21:31:11.895Z,92.40
2019-03-19T21:33:51.273Z,92.40
2019-03-19T21:36:18.607Z,92.50
2019-03-19T21:38:50.765Z,92.60
2019-03-19T21:41:23.543Z,93.70
2019-03-19T21:43:55.826Z,93.50
2019-03-19T21:46:28.304Z,93.50
2019-03-19T21:49:00.903Z,93.10
2019-03-19T21:51:34.427Z,93.00
2019-03-19T21:54:06.983Z,93.20
2019-03-19T21:56:39.478Z,93.30
2019-03-19T21:59:12.038Z,93.30
2019-03-19T22:01:45.265Z,93.10
2019-03-19T22:04:18.289Z,93.30
2019-03-19T22:06:50.676Z,93.50
2019-03-19T22:09:23.334Z,93.70
2019-03-19T22:11:55.986Z,93.50
2019-03-19T22:14:28.823Z,93.60
2019-03-19T22:17:01.200Z,93.60
2019-03-19T22:19:33.561Z,93.50
2019-03-19T22:22:05.981Z,93.30
2019-03-19T22:24:38.857Z,93.30
2019-03-19T22:27:11.266Z,93.70
2019-03-19T22:29:43.875Z,94.30
2019-03-19T22:32:16.550Z,94.50
2019-03-19T22:34:49.696Z,94.60
2019-03-19T22:37:22.264Z,94.70
2019-03-19T22:39:54.955Z,94.80
2019-03-19T22:42:27.683Z,95.00
2019-03-19T22:45:00.041Z,95.20
2019-03-19T22:47:33.204Z,95.00
2019-03-19T22:50:06.968Z,95.50
2019-03-19T22:52:39.395Z,95.60
2019-03-19T22:55:13.592Z,95.20
2019-03-19T22:57:46.560Z,94.40
2019-03-19T23:00:23.244Z,94.60
2019-03-19T23:02:57.373Z,94.50
2019-03-19T23:05:29.992Z,94.90
2019-03-19T23:08:02.777Z,94.30
2019-03-19T23:10:35.741Z,93.80
2019-03-19T23:13:08.683Z,94.00
2019-03-19T23:15:41.808Z,93.50
2019-03-19T23:18:14.665Z,94.20
2019-03-19T23:20:47.304Z,94.50
2019-03-19T23:23:19.964Z,95.00
2019-03-19T23:25:52.371Z,95.10
2019-03-19T23:28:25.236Z,95.00
2019-03-19T23:30:57.548Z,95.10
2019-03-19T23:33:29.951Z,94.50
2019-03-19T23:36:02.612Z,94.50
2019-03-19T23:38:35.102Z,94.50
2019-03-19T23:41:07.937Z,94.70
2019-03-19T23:43:40.258Z,94.80
2019-03-19T23:46:12.777Z,94.80
2019-03-19T23:48:45.163Z,94.70
2019-03-19T23:51:17.809Z,94.70
2019-03-19T23:53:50.234Z,94.60
2019-03-19T23:56:22.602Z,94.60
2019-03-19T23:58:55.228Z,94.60
